sensor_id;sensor_type;location;lat;lon;timestamp;P1;durP1;ratioP1;P2;durP2;ratioP2
19679;SDS011;9989;48.962;9.182;2022-09-30T00:02:15;14.20;;;7.70;;
19679;SDS011;9989;48.962;9.182;2022-09-30T00:04:40;11.40;;;6.97;;
19679;SDS011;9989;48.962;9.182;2022-09-30T00:07:06;13.87;;;7.10;;
19679;SDS011;9989;48.962;9.182;2022-09-30T00:09:31;12.03;;;7.10;;
19679;SDS011;9989;48.962;9.182;2022-09-30T00:11:57;10.83;;;6.60;;
19679;SDS011;9989;48.962;9.182;2022-09-30T00:14:23;11.40;;;6.53;;
19679;SDS011;9989;48.962;9.182;2022-09-30T00:16:48;13.13;;;7.27;;
19679;SDS011;9989;48.962;9.182;2022-09-30T00:19:14;12.63;;;7.13;;
19679;SDS011;9989;48.962;9.182;2022-09-30T00:21:40;13.63;;;7.03;;
19679;SDS011;9989;48.962;9.182;2022-09-30T00:24:06;12.73;;;6.80;;
19679;SDS011;9989;48.962;9.182;2022-09-30T00:26:32;11.73;;;6.57;;
19679;SDS011;9989;48.962;9.182;2022-09-30T00:28:58;13.23;;;7.00;;
19679;SDS011;9989;48.962;9.182;2022-09-30T00:31:28;11.30;;;6.40;;
19679;SDS011;9989;48.962;9.182;2022-09-30T00:33:56;10.90;;;6.30;;
19679;SDS011;9989;48.962;9.182;2022-09-30T00:36:35;15.33;;;7.40;;
19679;SDS011;9989;48.962;9.182;2022-09-30T00:39:02;11.50;;;6.87;;
19679;SDS011;9989;48.962;9.182;2022-09-30T00:41:28;11.43;;;6.67;;
19679;SDS011;9989;48.962;9.182;2022-09-30T00:43:54;10.60;;;6.60;;
19679;SDS011;9989;48.962;9.182;2022-09-30T00:48:54;12.33;;;6.37;;
19679;SDS011;9989;48.962;9.182;2022-09-30T00:51:27;11.00;;;6.13;;
19679;SDS011;9989;48.962;9.182;2022-09-30T00:53:57;12.43;;;6.97;;
19679;SDS011;9989;48.962;9.182;2022-09-30T00:56:25;12.27;;;6.30;;
19679;SDS011;9989;48.962;9.182;2022-09-30T01:01:26;12.07;;;6.57;;
19679;SDS011;9989;48.962;9.182;2022-09-30T01:03:56;10.57;;;6.13;;
19679;SDS011;9989;48.962;9.182;2022-09-30T01:06:28;12.57;;;6.80;;
19679;SDS011;9989;48.962;9.182;2022-09-30T01:08:54;10.83;;;6.23;;
19679;SDS011;9989;48.962;9.182;2022-09-30T01:11:22;11.60;;;5.87;;
19679;SDS011;9989;48.962;9.182;2022-09-30T01:13:49;12.77;;;6.40;;
19679;SDS011;9989;48.962;9.182;2022-09-30T01:29:57;12.40;;;6.53;;
19679;SDS011;9989;48.962;9.182;2022-09-30T01:32:43;10.50;;;6.00;;
19679;SDS011;9989;48.962;9.182;2022-09-30T01:40:24;11.60;;;6.43;;
19679;SDS011;9989;48.962;9.182;2022-09-30T01:51:27;11.77;;;6.60;;
19679;SDS011;9989;48.962;9.182;2022-09-30T01:56:41;11.53;;;6.33;;
19679;SDS011;9989;48.962;9.182;2022-09-30T01:59:19;11.07;;;5.77;;
19679;SDS011;9989;48.962;9.182;2022-09-30T02:02:07;14.70;;;6.17;;
19679;SDS011;9989;48.962;9.182;2022-09-30T02:04:52;16.90;;;6.77;;
19679;SDS011;9989;48.962;9.182;2022-09-30T02:07:27;12.50;;;6.47;;
19679;SDS011;9989;48.962;9.182;2022-09-30T02:10:19;12.07;;;6.27;;
19679;SDS011;9989;48.962;9.182;2022-09-30T02:12:54;14.13;;;6.33;;
19679;SDS011;9989;48.962;9.182;2022-09-30T02:15:23;12.40;;;5.77;;
19679;SDS011;9989;48.962;9.182;2022-09-30T02:18:04;10.73;;;5.90;;
19679;SDS011;9989;48.962;9.182;2022-09-30T02:20:38;10.20;;;6.30;;
19679;SDS011;9989;48.962;9.182;2022-09-30T02:23:11;10.83;;;5.93;;
19679;SDS011;9989;48.962;9.182;2022-09-30T02:26:06;10.10;;;5.50;;
19679;SDS011;9989;48.962;9.182;2022-09-30T02:28:48;12.23;;;6.60;;
19679;SDS011;9989;48.962;9.182;2022-09-30T02:31:17;11.23;;;6.30;;
19679;SDS011;9989;48.962;9.182;2022-09-30T02:33:55;10.33;;;6.13;;
19679;SDS011;9989;48.962;9.182;2022-09-30T02:36:33;12.17;;;6.67;;
19679;SDS011;9989;48.962;9.182;2022-09-30T02:39:05;10.77;;;5.83;;
19679;SDS011;9989;48.962;9.182;2022-09-30T02:41:38;12.40;;;6.80;;
19679;SDS011;9989;48.962;9.182;2022-09-30T02:44:11;13.17;;;6.57;;
19679;SDS011;9989;48.962;9.182;2022-09-30T02:49:18;12.07;;;7.07;;
19679;SDS011;9989;48.962;9.182;2022-09-30T02:51:58;11.50;;;7.10;;
19679;SDS011;9989;48.962;9.182;2022-09-30T02:57:45;11.03;;;5.77;;
19679;SDS011;9989;48.962;9.182;2022-09-30T03:00:13;11.63;;;6.43;;
19679;SDS011;9989;48.962;9.182;2022-09-30T03:02:40;12.27;;;7.00;;
19679;SDS011;9989;48.962;9.182;2022-09-30T03:05:06;12.33;;;6.53;;
19679;SDS011;9989;48.962;9.182;2022-09-30T03:07:33;11.17;;;6.33;;
19679;SDS011;9989;48.962;9.182;2022-09-30T03:09:59;11.97;;;6.77;;
19679;SDS011;9989;48.962;9.182;2022-09-30T03:15:10;12.80;;;6.47;;
19679;SDS011;9989;48.962;9.182;2022-09-30T03:20:49;12.50;;;6.63;;
19679;SDS011;9989;48.962;9.182;2022-09-30T03:31:47;9.80;;;5.60;;
19679;SDS011;9989;48.962;9.182;2022-09-30T03:34:19;12.47;;;7.10;;
19679;SDS011;9989;48.962;9.182;2022-09-30T03:42:35;13.93;;;6.40;;
19679;SDS011;9989;48.962;9.182;2022-09-30T03:47:54;10.87;;;6.37;;
19679;SDS011;9989;48.962;9.182;2022-09-30T03:50:23;11.47;;;6.30;;
19679;SDS011;9989;48.962;9.182;2022-09-30T03:52:51;10.67;;;5.90;;
19679;SDS011;9989;48.962;9.182;2022-09-30T03:55:17;10.63;;;6.07;;
19679;SDS011;9989;48.962;9.182;2022-09-30T03:57:43;11.13;;;6.37;;
19679;SDS011;9989;48.962;9.182;2022-09-30T04:00:10;10.73;;;6.20;;
19679;SDS011;9989;48.962;9.182;2022-09-30T04:02:36;13.33;;;6.53;;
19679;SDS011;9989;48.962;9.182;2022-09-30T04:05:03;11.07;;;6.13;;
19679;SDS011;9989;48.962;9.182;2022-09-30T04:07:30;12.43;;;6.13;;
19679;SDS011;9989;48.962;9.182;2022-09-30T04:09:56;12.47;;;5.90;;
19679;SDS011;9989;48.962;9.182;2022-09-30T04:12:21;10.80;;;6.27;;
19679;SDS011;9989;48.962;9.182;2022-09-30T04:14:47;14.30;;;7.23;;
19679;SDS011;9989;48.962;9.182;2022-09-30T04:17:13;11.40;;;6.80;;
19679;SDS011;9989;48.962;9.182;2022-09-30T04:19:39;11.70;;;6.43;;
19679;SDS011;9989;48.962;9.182;2022-09-30T04:22:05;10.27;;;5.70;;
19679;SDS011;9989;48.962;9.182;2022-09-30T04:24:31;11.40;;;6.37;;
19679;SDS011;9989;48.962;9.182;2022-09-30T04:26:57;11.53;;;5.80;;
19679;SDS011;9989;48.962;9.182;2022-09-30T04:29:23;12.50;;;6.23;;
19679;SDS011;9989;48.962;9.182;2022-09-30T04:31:49;10.33;;;6.03;;
19679;SDS011;9989;48.962;9.182;2022-09-30T04:34:14;11.53;;;5.70;;
19679;SDS011;9989;48.962;9.182;2022-09-30T04:36:40;11.67;;;5.70;;
19679;SDS011;9989;48.962;9.182;2022-09-30T04:39:06;10.30;;;5.40;;
19679;SDS011;9989;48.962;9.182;2022-09-30T04:41:32;10.77;;;5.30;;
19679;SDS011;9989;48.962;9.182;2022-09-30T04:43:58;10.77;;;5.33;;
19679;SDS011;9989;48.962;9.182;2022-09-30T04:46:24;11.03;;;6.23;;
19679;SDS011;9989;48.962;9.182;2022-09-30T04:48:50;11.33;;;6.00;;
19679;SDS011;9989;48.962;9.182;2022-09-30T04:51:16;11.50;;;6.37;;
19679;SDS011;9989;48.962;9.182;2022-09-30T04:53:43;9.80;;;5.47;;
19679;SDS011;9989;48.962;9.182;2022-09-30T04:56:10;9.17;;;5.43;;
19679;SDS011;9989;48.962;9.182;2022-09-30T04:58:36;9.43;;;5.63;;
19679;SDS011;9989;48.962;9.182;2022-09-30T05:01:02;9.60;;;5.50;;
19679;SDS011;9989;48.962;9.182;2022-09-30T05:03:30;10.37;;;5.40;;
19679;SDS011;9989;48.962;9.182;2022-09-30T05:05:57;10.23;;;5.57;;
19679;SDS011;9989;48.962;9.182;2022-09-30T05:08:23;9.77;;;5.20;;
19679;SDS011;9989;48.962;9.182;2022-09-30T05:10:52;11.43;;;5.77;;
19679;SDS011;9989;48.962;9.182;2022-09-30T05:13:22;11.97;;;6.67;;
19679;SDS011;9989;48.962;9.182;2022-09-30T05:15:49;10.20;;;5.83;;
19679;SDS011;9989;48.962;9.182;2022-09-30T05:18:15;11.23;;;6.00;;
19679;SDS011;9989;48.962;9.182;2022-09-30T05:20:41;12.43;;;6.60;;
19679;SDS011;9989;48.962;9.182;2022-09-30T05:23:06;12.00;;;7.13;;
19679;SDS011;9989;48.962;9.182;2022-09-30T05:25:33;10.97;;;6.33;;
19679;SDS011;9989;48.962;9.182;2022-09-30T05:27:59;13.73;;;7.50;;
19679;SDS011;9989;48.962;9.182;2022-09-30T05:30:25;21.60;;;11.77;;
19679;SDS011;9989;48.962;9.182;2022-09-30T05:32:51;22.57;;;11.83;;
19679;SDS011;9989;48.962;9.182;2022-09-30T05:35:17;23.00;;;13.10;;
19679;SDS011;9989;48.962;9.182;2022-09-30T05:37:43;21.70;;;12.67;;
19679;SDS011;9989;48.962;9.182;2022-09-30T05:40:08;17.83;;;10.40;;
19679;SDS011;9989;48.962;9.182;2022-09-30T05:42:34;15.23;;;8.10;;
19679;SDS011;9989;48.962;9.182;2022-09-30T05:45:01;12.13;;;7.67;;
19679;SDS011;9989;48.962;9.182;2022-09-30T05:47:28;12.63;;;7.30;;
19679;SDS011;9989;48.962;9.182;2022-09-30T05:49:53;13.97;;;7.80;;
19679;SDS011;9989;48.962;9.182;2022-09-30T05:52:19;12.37;;;7.67;;
19679;SDS011;9989;48.962;9.182;2022-09-30T05:54:44;15.03;;;6.80;;
19679;SDS011;9989;48.962;9.182;2022-09-30T05:57:10;10.73;;;6.47;;
19679;SDS011;9989;48.962;9.182;2022-09-30T05:59:35;12.17;;;7.87;;
19679;SDS011;9989;48.962;9.182;2022-09-30T06:02:02;12.63;;;7.50;;
19679;SDS011;9989;48.962;9.182;2022-09-30T06:04:28;10.97;;;6.47;;
19679;SDS011;9989;48.962;9.182;2022-09-30T06:06:53;11.23;;;6.10;;
19679;SDS011;9989;48.962;9.182;2022-09-30T06:09:19;11.80;;;6.57;;
19679;SDS011;9989;48.962;9.182;2022-09-30T06:11:44;10.33;;;5.80;;
19679;SDS011;9989;48.962;9.182;2022-09-30T06:14:10;11.20;;;6.17;;
19679;SDS011;9989;48.962;9.182;2022-09-30T06:16:35;14.33;;;6.63;;
19679;SDS011;9989;48.962;9.182;2022-09-30T06:19:01;12.97;;;6.87;;
19679;SDS011;9989;48.962;9.182;2022-09-30T06:21:26;11.20;;;6.37;;
19679;SDS011;9989;48.962;9.182;2022-09-30T06:23:53;12.23;;;6.67;;
19679;SDS011;9989;48.962;9.182;2022-09-30T06:26:18;11.38;;;6.95;;
19679;SDS011;9989;48.962;9.182;2022-09-30T06:28:44;15.90;;;9.23;;
19679;SDS011;9989;48.962;9.182;2022-09-30T06:31:10;14.33;;;8.13;;
19679;SDS011;9989;48.962;9.182;2022-09-30T06:33:36;12.83;;;7.43;;
19679;SDS011;9989;48.962;9.182;2022-09-30T06:36:01;11.70;;;6.70;;
19679;SDS011;9989;48.962;9.182;2022-09-30T06:38:29;13.67;;;7.60;;
19679;SDS011;9989;48.962;9.182;2022-09-30T06:40:57;13.30;;;6.90;;
19679;SDS011;9989;48.962;9.182;2022-09-30T06:43:23;11.53;;;6.80;;
19679;SDS011;9989;48.962;9.182;2022-09-30T06:45:49;15.13;;;9.83;;
19679;SDS011;9989;48.962;9.182;2022-09-30T06:48:15;14.83;;;10.03;;
19679;SDS011;9989;48.962;9.182;2022-09-30T06:50:42;15.70;;;8.70;;
19679;SDS011;9989;48.962;9.182;2022-09-30T06:53:09;14.00;;;7.90;;
19679;SDS011;9989;48.962;9.182;2022-09-30T06:55:36;14.00;;;9.07;;
19679;SDS011;9989;48.962;9.182;2022-09-30T06:58:03;13.73;;;8.83;;
19679;SDS011;9989;48.962;9.182;2022-09-30T07:00:33;13.00;;;7.83;;
19679;SDS011;9989;48.962;9.182;2022-09-30T07:02:58;12.77;;;6.90;;
19679;SDS011;9989;48.962;9.182;2022-09-30T07:05:24;14.53;;;7.77;;
19679;SDS011;9989;48.962;9.182;2022-09-30T07:07:50;12.83;;;7.67;;
19679;SDS011;9989;48.962;9.182;2022-09-30T07:10:16;12.50;;;6.93;;
19679;SDS011;9989;48.962;9.182;2022-09-30T07:12:43;14.23;;;7.90;;
19679;SDS011;9989;48.962;9.182;2022-09-30T07:15:09;15.00;;;7.57;;
19679;SDS011;9989;48.962;9.182;2022-09-30T07:17:34;12.43;;;7.40;;
19679;SDS011;9989;48.962;9.182;2022-09-30T07:20:00;14.90;;;8.05;;
19679;SDS011;9989;48.962;9.182;2022-09-30T07:22:51;15.37;;;8.77;;
19679;SDS011;9989;48.962;9.182;2022-09-30T07:25:17;15.63;;;9.33;;
19679;SDS011;9989;48.962;9.182;2022-09-30T07:27:43;16.83;;;9.67;;
19679;SDS011;9989;48.962;9.182;2022-09-30T07:30:09;14.67;;;8.07;;
19679;SDS011;9989;48.962;9.182;2022-09-30T07:32:35;15.60;;;8.77;;
19679;SDS011;9989;48.962;9.182;2022-09-30T07:35:01;14.47;;;8.23;;
19679;SDS011;9989;48.962;9.182;2022-09-30T07:37:27;12.00;;;7.10;;
19679;SDS011;9989;48.962;9.182;2022-09-30T07:39:56;16.23;;;11.30;;
19679;SDS011;9989;48.962;9.182;2022-09-30T07:42:22;15.90;;;8.90;;
19679;SDS011;9989;48.962;9.182;2022-09-30T07:44:48;14.33;;;8.97;;
19679;SDS011;9989;48.962;9.182;2022-09-30T07:47:16;14.17;;;8.00;;
19679;SDS011;9989;48.962;9.182;2022-09-30T07:49:42;12.30;;;7.70;;
19679;SDS011;9989;48.962;9.182;2022-09-30T07:52:09;14.90;;;8.07;;
19679;SDS011;9989;48.962;9.182;2022-09-30T07:54:36;16.30;;;8.83;;
19679;SDS011;9989;48.962;9.182;2022-09-30T07:57:03;15.90;;;8.70;;
19679;SDS011;9989;48.962;9.182;2022-09-30T07:59:30;20.60;;;8.70;;
19679;SDS011;9989;48.962;9.182;2022-09-30T08:01:57;15.20;;;9.00;;
19679;SDS011;9989;48.962;9.182;2022-09-30T08:04:23;13.80;;;7.40;;
19679;SDS011;9989;48.962;9.182;2022-09-30T08:06:51;13.40;;;8.40;;
19679;SDS011;9989;48.962;9.182;2022-09-30T08:09:19;14.93;;;8.70;;
19679;SDS011;9989;48.962;9.182;2022-09-30T08:11:46;14.57;;;8.47;;
19679;SDS011;9989;48.962;9.182;2022-09-30T08:14:22;14.83;;;8.50;;
19679;SDS011;9989;48.962;9.182;2022-09-30T08:16:49;18.13;;;9.83;;
19679;SDS011;9989;48.962;9.182;2022-09-30T08:19:19;14.95;;;8.85;;
19679;SDS011;9989;48.962;9.182;2022-09-30T08:21:46;14.30;;;8.47;;
19679;SDS011;9989;48.962;9.182;2022-09-30T08:24:13;15.80;;;9.77;;
19679;SDS011;9989;48.962;9.182;2022-09-30T08:26:40;17.03;;;9.57;;
19679;SDS011;9989;48.962;9.182;2022-09-30T08:29:06;15.53;;;8.73;;
19679;SDS011;9989;48.962;9.182;2022-09-30T08:31:34;14.17;;;8.53;;
19679;SDS011;9989;48.962;9.182;2022-09-30T08:34:00;17.40;;;8.50;;
19679;SDS011;9989;48.962;9.182;2022-09-30T08:36:27;14.90;;;8.20;;
19679;SDS011;9989;48.962;9.182;2022-09-30T08:38:54;15.30;;;10.23;;
19679;SDS011;9989;48.962;9.182;2022-09-30T08:52:42;17.93;;;9.50;;
19679;SDS011;9989;48.962;9.182;2022-09-30T08:55:24;15.13;;;9.30;;
19679;SDS011;9989;48.962;9.182;2022-09-30T08:58:10;15.47;;;8.73;;
19679;SDS011;9989;48.962;9.182;2022-09-30T09:00:50;15.17;;;9.33;;
19679;SDS011;9989;48.962;9.182;2022-09-30T09:03:19;14.95;;;9.05;;
19679;SDS011;9989;48.962;9.182;2022-09-30T09:16:35;14.47;;;7.63;;
19679;SDS011;9989;48.962;9.182;2022-09-30T09:24:19;12.27;;;7.30;;
19679;SDS011;9989;48.962;9.182;2022-09-30T09:26:47;10.83;;;6.47;;
19679;SDS011;9989;48.962;9.182;2022-09-30T09:31:52;13.90;;;7.93;;
19679;SDS011;9989;48.962;9.182;2022-09-30T09:34:18;12.07;;;7.47;;
19679;SDS011;9989;48.962;9.182;2022-09-30T09:36:51;11.90;;;6.93;;
19679;SDS011;9989;48.962;9.182;2022-09-30T09:39:33;12.93;;;7.93;;
19679;SDS011;9989;48.962;9.182;2022-09-30T09:45:20;10.00;;;6.40;;
19679;SDS011;9989;48.962;9.182;2022-09-30T09:47:51;14.40;;;7.30;;
19679;SDS011;9989;48.962;9.182;2022-09-30T09:50:20;12.33;;;5.83;;
19679;SDS011;9989;48.962;9.182;2022-09-30T09:55:55;13.60;;;7.10;;
19679;SDS011;9989;48.962;9.182;2022-09-30T09:58:24;10.37;;;5.20;;
19679;SDS011;9989;48.962;9.182;2022-09-30T10:00:50;9.73;;;5.57;;
19679;SDS011;9989;48.962;9.182;2022-09-30T10:03:19;9.33;;;5.20;;
19679;SDS011;9989;48.962;9.182;2022-09-30T10:08:26;10.10;;;5.33;;
19679;SDS011;9989;48.962;9.182;2022-09-30T10:13:30;8.20;;;4.43;;
19679;SDS011;9989;48.962;9.182;2022-09-30T10:16:02;10.70;;;6.77;;
19679;SDS011;9989;48.962;9.182;2022-09-30T10:18:30;11.77;;;6.60;;
19679;SDS011;9989;48.962;9.182;2022-09-30T10:21:21;9.87;;;6.30;;
19679;SDS011;9989;48.962;9.182;2022-09-30T10:23:47;12.43;;;6.93;;
19679;SDS011;9989;48.962;9.182;2022-09-30T10:33:56;10.03;;;5.70;;
19679;SDS011;9989;48.962;9.182;2022-09-30T10:36:32;8.97;;;4.53;;
19679;SDS011;9989;48.962;9.182;2022-09-30T10:39:07;8.80;;;5.30;;
19679;SDS011;9989;48.962;9.182;2022-09-30T10:41:44;11.13;;;5.90;;
19679;SDS011;9989;48.962;9.182;2022-09-30T10:44:17;8.33;;;4.97;;
19679;SDS011;9989;48.962;9.182;2022-09-30T10:46:46;9.47;;;5.67;;
19679;SDS011;9989;48.962;9.182;2022-09-30T10:52:17;9.40;;;4.93;;
19679;SDS011;9989;48.962;9.182;2022-09-30T10:54:49;8.40;;;5.07;;
19679;SDS011;9989;48.962;9.182;2022-09-30T10:57:22;8.10;;;4.77;;
19679;SDS011;9989;48.962;9.182;2022-09-30T11:00:12;9.57;;;5.30;;
19679;SDS011;9989;48.962;9.182;2022-09-30T11:05:26;10.37;;;4.67;;
19679;SDS011;9989;48.962;9.182;2022-09-30T11:11:02;8.37;;;4.83;;
19679;SDS011;9989;48.962;9.182;2022-09-30T11:13:54;8.17;;;4.20;;
19679;SDS011;9989;48.962;9.182;2022-09-30T11:19:12;7.40;;;3.70;;
19679;SDS011;9989;48.962;9.182;2022-09-30T11:22:03;6.57;;;3.03;;
19679;SDS011;9989;48.962;9.182;2022-09-30T11:24:35;7.00;;;3.27;;
19679;SDS011;9989;48.962;9.182;2022-09-30T11:32:44;7.33;;;3.47;;
19679;SDS011;9989;48.962;9.182;2022-09-30T11:41:15;6.20;;;3.30;;
19679;SDS011;9989;48.962;9.182;2022-09-30T11:46:56;6.80;;;3.43;;
19679;SDS011;9989;48.962;9.182;2022-09-30T11:52:54;6.20;;;2.87;;
19679;SDS011;9989;48.962;9.182;2022-09-30T11:58:21;4.53;;;2.07;;
19679;SDS011;9989;48.962;9.182;2022-09-30T12:00:54;6.03;;;3.00;;
19679;SDS011;9989;48.962;9.182;2022-09-30T12:03:29;6.30;;;2.20;;
19679;SDS011;9989;48.962;9.182;2022-09-30T12:06:04;4.10;;;2.28;;
19679;SDS011;9989;48.962;9.182;2022-09-30T12:08:39;6.95;;;2.75;;
19679;SDS011;9989;48.962;9.182;2022-09-30T12:11:13;6.95;;;3.58;;
19679;SDS011;9989;48.962;9.182;2022-09-30T12:13:48;5.82;;;2.65;;
19679;SDS011;9989;48.962;9.182;2022-09-30T12:16:22;6.10;;;2.70;;
19679;SDS011;9989;48.962;9.182;2022-09-30T12:18:52;5.45;;;2.22;;
19679;SDS011;9989;48.962;9.182;2022-09-30T12:21:34;4.60;;;2.03;;
19679;SDS011;9989;48.962;9.182;2022-09-30T12:24:08;7.13;;;2.83;;
19679;SDS011;9989;48.962;9.182;2022-09-30T12:26:45;5.70;;;2.80;;
19679;SDS011;9989;48.962;9.182;2022-09-30T12:29:14;4.85;;;2.42;;
19679;SDS011;9989;48.962;9.182;2022-09-30T12:46:23;3.53;;;2.05;;
19679;SDS011;9989;48.962;9.182;2022-09-30T12:48:58;4.10;;;1.75;;
19679;SDS011;9989;48.962;9.182;2022-09-30T12:53:56;3.40;;;1.80;;
19679;SDS011;9989;48.962;9.182;2022-09-30T12:56:28;3.67;;;1.70;;
19679;SDS011;9989;48.962;9.182;2022-09-30T12:58:55;4.25;;;1.83;;
19679;SDS011;9989;48.962;9.182;2022-09-30T13:01:22;4.05;;;1.70;;
19679;SDS011;9989;48.962;9.182;2022-09-30T13:03:51;5.40;;;2.50;;
19679;SDS011;9989;48.962;9.182;2022-09-30T13:06:24;5.00;;;2.20;;
19679;SDS011;9989;48.962;9.182;2022-09-30T13:11:33;4.70;;;2.20;;
19679;SDS011;9989;48.962;9.182;2022-09-30T13:19:44;5.63;;;2.30;;
19679;SDS011;9989;48.962;9.182;2022-09-30T13:28:25;4.43;;;2.07;;
19679;SDS011;9989;48.962;9.182;2022-09-30T13:35:35;7.03;;;2.60;;
19679;SDS011;9989;48.962;9.182;2022-09-30T13:43:39;6.33;;;2.47;;
19679;SDS011;9989;48.962;9.182;2022-09-30T13:51:42;6.03;;;2.70;;
19679;SDS011;9989;48.962;9.182;2022-09-30T13:54:15;4.50;;;2.10;;
19679;SDS011;9989;48.962;9.182;2022-09-30T13:57:02;4.80;;;2.40;;
19679;SDS011;9989;48.962;9.182;2022-09-30T14:19:35;5.90;;;2.43;;
19679;SDS011;9989;48.962;9.182;2022-09-30T14:22:02;4.50;;;2.10;;
19679;SDS011;9989;48.962;9.182;2022-09-30T14:24:34;5.00;;;2.30;;
19679;SDS011;9989;48.962;9.182;2022-09-30T14:32:33;8.40;;;3.50;;
19679;SDS011;9989;48.962;9.182;2022-09-30T14:35:07;6.60;;;2.57;;
19679;SDS011;9989;48.962;9.182;2022-09-30T14:37:38;7.03;;;2.53;;
19679;SDS011;9989;48.962;9.182;2022-09-30T14:40:15;6.20;;;2.40;;
19679;SDS011;9989;48.962;9.182;2022-09-30T14:42:48;5.53;;;2.47;;
19679;SDS011;9989;48.962;9.182;2022-09-30T14:45:19;4.93;;;2.30;;
19679;SDS011;9989;48.962;9.182;2022-09-30T14:47:51;7.50;;;2.70;;
19679;SDS011;9989;48.962;9.182;2022-09-30T14:50:24;5.87;;;2.23;;
19679;SDS011;9989;48.962;9.182;2022-09-30T14:52:52;5.77;;;2.13;;
19679;SDS011;9989;48.962;9.182;2022-09-30T14:55:27;5.83;;;2.40;;
19679;SDS011;9989;48.962;9.182;2022-09-30T15:03:39;5.67;;;2.10;;
19679;SDS011;9989;48.962;9.182;2022-09-30T15:06:16;6.27;;;2.67;;
19679;SDS011;9989;48.962;9.182;2022-09-30T15:08:48;6.17;;;2.53;;
19679;SDS011;9989;48.962;9.182;2022-09-30T15:11:20;5.33;;;2.43;;
19679;SDS011;9989;48.962;9.182;2022-09-30T15:13:48;5.53;;;2.40;;
19679;SDS011;9989;48.962;9.182;2022-09-30T15:16:25;6.43;;;2.77;;
19679;SDS011;9989;48.962;9.182;2022-09-30T15:18:52;6.40;;;2.40;;
19679;SDS011;9989;48.962;9.182;2022-09-30T15:21:18;4.80;;;2.20;;
19679;SDS011;9989;48.962;9.182;2022-09-30T15:23:47;4.63;;;1.90;;
19679;SDS011;9989;48.962;9.182;2022-09-30T15:26:18;5.53;;;2.10;;
19679;SDS011;9989;48.962;9.182;2022-09-30T15:28:47;5.90;;;2.30;;
19679;SDS011;9989;48.962;9.182;2022-09-30T15:31:17;5.57;;;2.20;;
19679;SDS011;9989;48.962;9.182;2022-09-30T15:33:44;5.43;;;2.23;;
19679;SDS011;9989;48.962;9.182;2022-09-30T15:38:44;4.20;;;2.00;;
19679;SDS011;9989;48.962;9.182;2022-09-30T15:41:15;4.77;;;2.10;;
19679;SDS011;9989;48.962;9.182;2022-09-30T15:49:00;5.03;;;2.37;;
19679;SDS011;9989;48.962;9.182;2022-09-30T15:51:36;5.63;;;2.20;;
19679;SDS011;9989;48.962;9.182;2022-09-30T15:56:38;6.73;;;2.53;;
19679;SDS011;9989;48.962;9.182;2022-09-30T15:59:05;4.83;;;2.03;;
19679;SDS011;9989;48.962;9.182;2022-09-30T16:01:38;5.43;;;2.30;;
19679;SDS011;9989;48.962;9.182;2022-09-30T16:04:09;4.63;;;1.90;;
19679;SDS011;9989;48.962;9.182;2022-09-30T16:09:33;5.00;;;1.90;;
19679;SDS011;9989;48.962;9.182;2022-09-30T16:14:42;4.40;;;1.90;;
19679;SDS011;9989;48.962;9.182;2022-09-30T16:17:23;4.83;;;2.00;;
19679;SDS011;9989;48.962;9.182;2022-09-30T16:20:04;4.37;;;1.63;;
19679;SDS011;9989;48.962;9.182;2022-09-30T16:27:42;7.10;;;3.20;;
19679;SDS011;9989;48.962;9.182;2022-09-30T16:30:08;11.03;;;4.93;;
19679;SDS011;9989;48.962;9.182;2022-09-30T16:32:39;11.17;;;6.60;;
19679;SDS011;9989;48.962;9.182;2022-09-30T16:35:12;11.20;;;6.80;;
19679;SDS011;9989;48.962;9.182;2022-09-30T16:37:42;12.77;;;8.80;;
19679;SDS011;9989;48.962;9.182;2022-09-30T16:40:29;11.53;;;6.70;;
19679;SDS011;9989;48.962;9.182;2022-09-30T16:42:55;8.07;;;4.43;;
19679;SDS011;9989;48.962;9.182;2022-09-30T16:45:22;7.87;;;4.23;;
19679;SDS011;9989;48.962;9.182;2022-09-30T16:47:49;7.03;;;3.90;;
19679;SDS011;9989;48.962;9.182;2022-09-30T16:50:16;8.07;;;3.70;;
19679;SDS011;9989;48.962;9.182;2022-09-30T16:52:53;14.37;;;4.20;;
19679;SDS011;9989;48.962;9.182;2022-09-30T16:55:19;9.30;;;3.40;;
19679;SDS011;9989;48.962;9.182;2022-09-30T16:57:45;8.33;;;3.27;;
19679;SDS011;9989;48.962;9.182;2022-09-30T17:00:12;16.67;;;4.13;;
19679;SDS011;9989;48.962;9.182;2022-09-30T17:02:40;7.83;;;3.40;;
19679;SDS011;9989;48.962;9.182;2022-09-30T17:05:05;10.60;;;3.43;;
19679;SDS011;9989;48.962;9.182;2022-09-30T17:07:36;10.03;;;4.53;;
19679;SDS011;9989;48.962;9.182;2022-09-30T17:10:02;8.77;;;5.10;;
19679;SDS011;9989;48.962;9.182;2022-09-30T17:12:27;11.30;;;4.77;;
19679;SDS011;9989;48.962;9.182;2022-09-30T17:14:53;8.47;;;4.67;;
19679;SDS011;9989;48.962;9.182;2022-09-30T17:17:21;9.87;;;5.93;;
19679;SDS011;9989;48.962;9.182;2022-09-30T17:19:47;10.00;;;5.07;;
19679;SDS011;9989;48.962;9.182;2022-09-30T17:22:13;7.53;;;3.77;;
19679;SDS011;9989;48.962;9.182;2022-09-30T17:24:38;7.23;;;2.93;;
19679;SDS011;9989;48.962;9.182;2022-09-30T17:27:04;10.13;;;3.40;;
19679;SDS011;9989;48.962;9.182;2022-09-30T17:29:31;6.87;;;3.40;;
19679;SDS011;9989;48.962;9.182;2022-09-30T17:31:56;8.33;;;3.70;;
19679;SDS011;9989;48.962;9.182;2022-09-30T17:34:22;11.00;;;3.80;;
19679;SDS011;9989;48.962;9.182;2022-09-30T17:36:48;7.37;;;3.33;;
19679;SDS011;9989;48.962;9.182;2022-09-30T17:39:13;6.27;;;3.00;;
19679;SDS011;9989;48.962;9.182;2022-09-30T17:41:40;7.07;;;3.30;;
19679;SDS011;9989;48.962;9.182;2022-09-30T17:44:24;8.30;;;4.47;;
19679;SDS011;9989;48.962;9.182;2022-09-30T17:46:50;9.83;;;5.90;;
19679;SDS011;9989;48.962;9.182;2022-09-30T17:49:24;13.17;;;7.77;;
19679;SDS011;9989;48.962;9.182;2022-09-30T17:51:57;15.23;;;8.63;;
19679;SDS011;9989;48.962;9.182;2022-09-30T17:54:23;13.93;;;8.07;;
19679;SDS011;9989;48.962;9.182;2022-09-30T17:56:49;15.73;;;9.27;;
19679;SDS011;9989;48.962;9.182;2022-09-30T17:59:14;20.33;;;10.43;;
19679;SDS011;9989;48.962;9.182;2022-09-30T18:01:43;22.67;;;13.37;;
19679;SDS011;9989;48.962;9.182;2022-09-30T18:04:08;22.50;;;12.10;;
19679;SDS011;9989;48.962;9.182;2022-09-30T18:06:34;16.83;;;9.23;;
19679;SDS011;9989;48.962;9.182;2022-09-30T18:08:59;12.10;;;6.33;;
19679;SDS011;9989;48.962;9.182;2022-09-30T18:11:28;10.50;;;5.67;;
19679;SDS011;9989;48.962;9.182;2022-09-30T18:13:55;9.50;;;4.70;;
19679;SDS011;9989;48.962;9.182;2022-09-30T18:16:24;12.07;;;4.77;;
19679;SDS011;9989;48.962;9.182;2022-09-30T18:18:54;11.07;;;5.17;;
19679;SDS011;9989;48.962;9.182;2022-09-30T18:21:20;7.97;;;4.43;;
19679;SDS011;9989;48.962;9.182;2022-09-30T18:23:45;9.17;;;4.43;;
19679;SDS011;9989;48.962;9.182;2022-09-30T18:26:13;10.17;;;5.20;;
19679;SDS011;9989;48.962;9.182;2022-09-30T18:28:39;10.20;;;5.40;;
19679;SDS011;9989;48.962;9.182;2022-09-30T18:31:07;9.27;;;4.60;;
19679;SDS011;9989;48.962;9.182;2022-09-30T18:33:32;10.40;;;5.10;;
19679;SDS011;9989;48.962;9.182;2022-09-30T18:35:59;9.13;;;4.57;;
19679;SDS011;9989;48.962;9.182;2022-09-30T18:38:25;9.77;;;4.97;;
19679;SDS011;9989;48.962;9.182;2022-09-30T18:40:52;14.37;;;9.47;;
19679;SDS011;9989;48.962;9.182;2022-09-30T18:43:18;10.90;;;5.97;;
19679;SDS011;9989;48.962;9.182;2022-09-30T18:45:51;10.40;;;5.70;;
19679;SDS011;9989;48.962;9.182;2022-09-30T18:48:24;11.87;;;7.30;;
19679;SDS011;9989;48.962;9.182;2022-09-30T18:50:50;12.40;;;7.50;;
19679;SDS011;9989;48.962;9.182;2022-09-30T18:53:18;11.00;;;6.47;;
19679;SDS011;9989;48.962;9.182;2022-09-30T18:55:45;14.60;;;5.40;;
19679;SDS011;9989;48.962;9.182;2022-09-30T18:58:10;8.80;;;5.20;;
19679;SDS011;9989;48.962;9.182;2022-09-30T19:00:36;12.57;;;5.13;;
19679;SDS011;9989;48.962;9.182;2022-09-30T19:03:02;10.13;;;5.53;;
19679;SDS011;9989;48.962;9.182;2022-09-30T19:05:28;9.63;;;5.17;;
19679;SDS011;9989;48.962;9.182;2022-09-30T19:07:54;11.43;;;6.80;;
19679;SDS011;9989;48.962;9.182;2022-09-30T19:10:20;11.43;;;6.60;;
19679;SDS011;9989;48.962;9.182;2022-09-30T19:12:48;12.40;;;7.10;;